Time;durP1;ratioP1;P1;durP2;ratioP2;P2;SDS_P1;SDS_P2;PMS_P1;PMS_P2;Temp;Humidity;BMP_temperature;BMP_pressure;BME280_temperature;BME280_humidity;BME280_pressure;Samples;Min_cycle;Max_cycle;Signal;HPM_P1;HPM_P2
2023/10/03 00:00:31;;;;;;;15.05;9.95;;;358.90;2329.60;;;;;;5088472;28;20028;-58
2023/10/03 00:02:57;;;;;;;14.45;9.80;;;358.90;2329.60;;;;;;5088447;28;20028;-56
2023/10/03 00:05:28;;;;;;;12.82;9.73;;;358.90;2329.60;;;;;;5070702;28;20044;-57
2023/10/03 00:07:55;;;;;;;16.45;9.35;;;358.80;2329.60;;;;;;5073848;28;20358;-57
2023/10/03 00:10:21;;;;;;;14.32;9.25;;;358.90;2329.60;;;;;;5088137;28;20020;-57
2023/10/03 00:12:48;;;;;;;19.10;10.57;;;358.80;2329.60;;;;;;5076000;28;20039;-57
2023/10/03 00:15:25;;;;;;;14.43;9.75;;;358.80;2329.60;;;;;;5064530;28;20441;-56
2023/10/03 00:17:55;;;;;;;14.95;9.63;;;358.80;2329.60;;;;;;5063184;28;20102;-57
2023/10/03 00:20:22;;;;;;;15.35;10.52;;;358.80;2329.60;;;;;;5087989;28;20051;-57
2023/10/03 00:22:50;;;;;;;11.82;9.13;;;358.80;2329.60;;;;;;5088355;28;20027;-56
2023/10/03 00:25:21;;;;;;;13.52;8.48;;;358.80;2329.60;;;;;;5087568;28;20024;-58
2023/10/03 00:27:52;;;;;;;14.40;9.63;;;358.80;2329.60;;;;;;5088488;28;20032;-58
2023/10/03 00:30:25;;;;;;;20.42;10.10;;;358.80;2329.60;;;;;;5087555;28;20035;-57
2023/10/03 00:32:57;;;;;;;15.18;10.10;;;358.70;2329.60;;;;;;5087292;28;20071;-58
2023/10/03 00:35:24;;;;;;;15.32;9.05;;;358.70;2329.60;;;;;;5087008;28;20035;-57
2023/10/03 00:37:51;;;;;;;13.00;8.82;;;358.70;2329.60;;;;;;5087656;28;20153;-56
2023/10/03 00:40:28;;;;;;;15.20;9.57;;;358.80;2329.60;;;;;;5066459;28;20017;-57
2023/10/03 00:43:01;;;;;;;16.83;9.45;;;358.80;2329.60;;;;;;5073913;28;20040;-57
2023/10/03 00:45:31;;;;;;;14.20;8.70;;;358.70;2329.60;;;;;;5087688;28;20466;-56
2023/10/03 00:47:59;;;;;;;15.55;9.23;;;358.70;2329.60;;;;;;5071492;28;20037;-57
2023/10/03 00:50:31;;;;;;;14.98;10.07;;;358.70;2329.60;;;;;;5072701;28;20034;-57
2023/10/03 00:52:57;;;;;;;13.45;9.20;;;358.70;2329.60;;;;;;5088827;28;20068;-56
2023/10/03 00:55:26;;;;;;;12.73;9.35;;;358.70;2329.60;;;;;;5090792;28;20032;-57
2023/10/03 00:58:06;;;;;;;19.98;9.50;;;358.70;2329.60;;;;;;5091482;28;20020;-57
2023/10/03 01:00:39;;;;;;;15.20;9.45;;;358.70;2329.60;;;;;;5091786;28;20027;-57
2023/10/03 01:03:06;;;;;;;;;;;358.60;2329.60;;;;;;5092256;28;20112;-56
2023/10/03 01:05:33;;;;;;;14.90;10.00;;;358.60;2329.60;;;;;;5091352;28;20286;-57
2023/10/03 01:07:59;;;;;;;14.05;9.15;;;358.60;2329.60;;;;;;5091413;28;20020;-57
2023/10/03 01:10:25;;;;;;;12.75;9.82;;;358.60;2329.60;;;;;;5076618;28;20033;-58
2023/10/03 01:12:54;;;;;;;14.52;9.25;;;358.50;2329.60;;;;;;5084763;28;20114;-57
2023/10/03 01:15:23;;;;;;;16.70;10.07;;;358.60;2329.60;;;;;;5091586;28;20055;-58
2023/10/03 01:17:49;;;;;;;16.17;9.52;;;358.60;2329.60;;;;;;5091353;28;20088;-57
2023/10/03 01:20:28;;;;;;;15.77;8.10;;;358.60;2329.60;;;;;;5091126;28;20106;-57
2023/10/03 01:22:55;;;;;;;15.15;8.88;;;358.60;2329.60;;;;;;5089344;28;20050;-57
2023/10/03 01:25:22;;;;;;;14.73;9.93;;;358.60;2329.60;;;;;;5066289;28;20107;-55
2023/10/03 01:27:47;;;;;;;13.00;9.00;;;358.60;2329.60;;;;;;5082991;28;20028;-57
2023/10/03 01:30:13;;;;;;;14.30;8.80;;;358.60;2329.60;;;;;;5077284;28;20173;-57
2023/10/03 01:32:47;;;;;;;14.85;9.45;;;358.60;2329.60;;;;;;5091065;28;20032;-58
2023/10/03 01:35:13;;;;;;;13.63;9.63;;;358.60;2329.60;;;;;;5090899;28;20016;-57
2023/10/03 01:37:39;;;;;;;16.58;11.50;;;358.70;2329.60;;;;;;5090965;28;20139;-58
2023/10/03 01:40:13;;;;;;;14.80;9.13;;;358.50;2329.60;;;;;;5090132;28;20027;-57
2023/10/03 01:42:45;;;;;;;13.65;9.52;;;358.50;2329.60;;;;;;5090759;28;20054;-57
2023/10/03 01:45:17;;;;;;;13.07;9.38;;;358.40;2329.60;;;;;;5090702;28;20465;-57
2023/10/03 01:47:49;;;;;;;16.95;10.15;;;358.40;2329.60;;;;;;5090285;28;20430;-58
2023/10/03 01:50:17;;;;;;;16.00;10.65;;;358.40;2329.60;;;;;;5072462;28;20056;-57
2023/10/03 01:52:43;;;;;;;13.38;8.60;;;358.40;2329.60;;;;;;5084520;28;20051;-58
2023/10/03 01:55:13;;;;;;;16.15;10.35;;;333.70;2329.60;;;;;;5091133;28;20387;-56
2023/10/03 01:57:40;;;;;;;18.77;11.48;;;333.70;2329.60;;;;;;5090329;28;20051;-58
2023/10/03 02:00:20;;;;;;;20.00;9.82;;;333.60;2329.60;;;;;;5090573;28;20027;-59
2023/10/03 02:02:50;;;;;;;17.08;11.18;;;333.70;2329.60;;;;;;5090489;28;20145;-58
2023/10/03 02:05:24;;;;;;;13.82;9.57;;;333.70;2329.60;;;;;;5076309;28;20489;-58
2023/10/03 02:07:55;;;;;;;;;;;358.70;2329.60;;;;;;5066171;28;20035;-57
2023/10/03 02:10:22;;;;;;;14.38;9.35;;;333.70;2329.60;;;;;;5088287;28;19904;-58
2023/10/03 02:12:51;;;;;;;16.67;11.30;;;333.60;2329.60;;;;;;5078437;28;20032;-57
2023/10/03 02:15:22;;;;;;;13.48;8.93;;;333.50;2329.60;;;;;;5090176;28;20032;-57
2023/10/03 02:17:55;;;;;;;16.38;9.95;;;333.50;2329.60;;;;;;5090316;28;20044;-59
2023/10/03 02:20:25;;;;;;;15.38;10.07;;;333.50;2329.60;;;;;;5087986;28;20044;-58
2023/10/03 02:22:55;;;;;;;12.32;9.48;;;333.50;2329.60;;;;;;5072433;28;20112;-57
2023/10/03 02:25:28;;;;;;;15.15;10.80;;;333.50;2329.60;;;;;;5088113;28;20047;-57
2023/10/03 02:27:56;;;;;;;16.73;9.70;;;333.60;2329.60;;;;;;5089079;28;20373;-56
2023/10/03 02:30:25;;;;;;;14.45;9.27;;;333.60;2329.60;;;;;;5085630;28;20020;-57
2023/10/03 02:32:57;;;;;;;18.13;10.02;;;333.60;2329.60;;;;;;5073575;28;20032;-57
2023/10/03 02:35:25;;;;;;;15.05;8.90;;;333.60;2329.60;;;;;;5083417;28;20478;-58
2023/10/03 02:37:52;;;;;;;13.70;8.77;;;333.60;2329.60;;;;;;5089674;28;20055;-57
2023/10/03 02:40:22;;;;;;;14.10;10.02;;;333.60;2329.60;;;;;;5089537;28;20035;-57
2023/10/03 02:42:54;;;;;;;17.50;10.15;;;333.60;2329.60;;;;;;5089816;28;20024;-58
2023/10/03 02:45:25;;;;;;;16.23;10.02;;;333.60;2329.60;;;;;;5088938;28;20120;-58
2023/10/03 02:47:56;;;;;;;14.68;10.10;;;333.50;2329.60;;;;;;5089395;28;20550;-57
2023/10/03 02:50:26;;;;;;;15.25;9.82;;;333.50;2329.60;;;;;;5089613;28;20016;-58
2023/10/03 02:52:55;;;;;;;15.50;9.15;;;333.50;2329.60;;;;;;5081737;28;20062;-58
2023/10/03 02:55:22;;;;;;;16.13;10.82;;;333.50;2329.60;;;;;;5065054;28;20412;-58
2023/10/03 02:57:49;;;;;;;17.50;9.10;;;333.50;2329.60;;;;;;5086731;28;20081;-58
2023/10/03 03:00:15;;;;;;;16.38;10.43;;;333.50;2329.60;;;;;;5089678;28;20051;-58
2023/10/03 03:02:49;;;;;;;13.10;9.50;;;333.40;2329.60;;;;;;5089217;28;20377;-58
2023/10/03 03:05:16;;;;;;;15.13;8.73;;;333.40;2329.60;;;;;;5089272;28;20024;-58
2023/10/03 03:07:49;;;;;;;15.18;12.00;;;333.40;2329.60;;;;;;5085015;28;20020;-57
2023/10/03 03:10:18;;;;;;;14.27;11.10;;;333.40;2329.60;;;;;;5076212;28;20106;-57
2023/10/03 03:12:49;;;;;;;16.27;10.35;;;333.40;2329.60;;;;;;5076573;28;20064;-59
2023/10/03 03:15:22;;;;;;;14.20;9.27;;;333.40;2329.60;;;;;;5088824;28;20035;-57
2023/10/03 03:17:51;;;;;;;19.90;9.57;;;333.40;2329.60;;;;;;5088730;28;20032;-57
2023/10/03 03:20:18;;;;;;;17.48;11.18;;;333.30;2329.60;;;;;;5088903;28;20044;-59
2023/10/03 03:22:48;;;;;;;14.40;9.90;;;333.30;2329.60;;;;;;5078706;28;20415;-57
2023/10/03 03:28:12;;;;;;;14.48;9.95;;;333.40;2329.60;;;;;;5064046;28;20082;-58
2023/10/03 03:30:46;;;;;;;13.98;9.35;;;333.40;2329.60;;;;;;5067148;28;20032;-58
2023/10/03 03:33:14;;;;;;;17.52;10.02;;;333.30;2329.60;;;;;;5088745;28;20024;-58
2023/10/03 03:35:40;;;;;;;12.10;9.32;;;333.30;2329.60;;;;;;5088695;28;20028;-58
2023/10/03 03:38:15;;;;;;;15.35;10.75;;;333.20;2329.60;;;;;;5088711;28;20047;-57
2023/10/03 03:40:45;;;;;;;14.98;9.70;;;333.20;2329.60;;;;;;5088759;28;20031;-57
2023/10/03 03:43:12;;;;;;;15.07;10.32;;;333.20;2329.60;;;;;;5088247;28;20035;-57
2023/10/03 03:45:39;;;;;;;13.93;10.82;;;333.20;2329.60;;;;;;5088085;28;20480;-56
2023/10/03 03:48:06;;;;;;;20.42;10.70;;;333.20;2329.60;;;;;;5088071;28;20047;-57
2023/10/03 03:50:32;;;;;;;14.35;9.52;;;333.10;2329.60;;;;;;5088980;28;20491;-56
2023/10/03 03:52:58;;;;;;;15.15;10.25;;;333.10;2329.60;;;;;;5088394;28;20390;-57
2023/10/03 03:55:29;;;;;;;16.05;10.05;;;333.20;2329.60;;;;;;5088076;28;20031;-59
2023/10/03 03:58:14;;;;;;;12.68;8.55;;;333.20;2329.60;;;;;;5088154;28;20437;-58
2023/10/03 04:00:44;;;;;;;17.83;10.65;;;333.20;2329.60;;;;;;5079552;28;20470;-57
2023/10/03 04:03:13;;;;;;;18.52;10.98;;;333.20;2329.60;;;;;;5069409;28;20496;-58
2023/10/03 04:05:39;;;;;;;16.27;9.55;;;333.20;2329.60;;;;;;5088435;28;20024;-57
2023/10/03 04:08:05;;;;;;;17.05;10.40;;;333.10;2329.60;;;;;;5087903;28;20131;-57
2023/10/03 04:10:33;;;;;;;13.68;9.77;;;333.10;2329.60;;;;;;5088087;28;20458;-57
2023/10/03 04:12:59;;;;;;;16.65;9.90;;;333.10;2329.60;;;;;;5088991;28;20032;-57
2023/10/03 04:15:25;;;;;;;16.05;10.88;;;333.10;2329.60;;;;;;5087721;28;20016;-58
2023/10/03 04:17:51;;;;;;;13.07;9.43;;;333.10;2329.60;;;;;;5087964;28;20102;-58
2023/10/03 04:20:35;;;;;;;13.82;9.88;;;333.10;2329.60;;;;;;5088181;28;20494;-58
2023/10/03 04:23:03;;;;;;;15.05;10.60;;;333.10;2329.60;;;;;;5088420;28;20485;-57
2023/10/03 04:25:30;;;;;;;15.18;11.05;;;333.10;2329.60;;;;;;5088398;28;20073;-57
2023/10/03 04:27:57;;;;;;;15.82;10.73;;;333.00;2329.60;;;;;;5088744;28;20048;-58
2023/10/03 04:30:25;;;;;;;12.35;9.48;;;333.10;2329.60;;;;;;5065724;28;20020;-58
2023/10/03 04:32:52;;;;;;;16.90;10.25;;;333.20;2329.60;;;;;;5078566;28;20107;-56
2023/10/03 04:35:19;;;;;;;13.73;10.57;;;333.20;2329.60;;;;;;5070485;28;20467;-57
2023/10/03 04:37:51;;;;;;;18.63;10.45;;;333.20;2329.60;;;;;;5081667;28;20043;-56
2023/10/03 04:40:22;;;;;;;16.57;11.63;;;333.10;2329.60;;;;;;5083789;28;20024;-56
2023/10/03 04:42:53;;;;;;;19.58;10.68;;;333.10;2329.60;;;;;;5086913;28;20479;-57
2023/10/03 04:45:19;;;;;;;15.65;10.30;;;333.10;2329.60;;;;;;5092109;28;20074;-57
2023/10/03 04:47:47;;;;;;;17.88;10.70;;;333.10;2329.60;;;;;;5078266;28;20028;-58
2023/10/03 04:50:17;;;;;;;14.32;9.93;;;333.20;2329.60;;;;;;5091743;28;20056;-56
2023/10/03 04:52:47;;;;;;;14.50;10.02;;;333.20;2329.60;;;;;;5091500;28;20034;-57
2023/10/03 04:55:17;;;;;;;15.57;10.32;;;333.20;2329.60;;;;;;5090928;28;20208;-57
2023/10/03 04:57:48;;;;;;;17.58;10.95;;;333.20;2329.60;;;;;;5089254;28;20024;-57
2023/10/03 05:00:18;;;;;;;14.85;10.18;;;333.20;2329.60;;;;;;5091943;28;20122;-57
2023/10/03 05:02:47;;;;;;;18.55;11.07;;;333.20;2329.60;;;;;;5091396;28;20020;-58
2023/10/03 05:05:18;;;;;;;16.30;10.77;;;333.30;2329.60;;;;;;5083770;28;20021;-58
2023/10/03 05:07:44;;;;;;;16.35;10.93;;;333.40;2329.60;;;;;;5074370;28;20054;-58
2023/10/03 05:10:10;;;;;;;17.90;10.75;;;333.40;2329.60;;;;;;5091761;28;20181;-59
2023/10/03 05:12:37;;;;;;;16.60;10.10;;;333.40;2329.60;;;;;;5091747;28;20505;-58
2023/10/03 05:15:06;;;;;;;18.67;10.57;;;333.40;2329.60;;;;;;5091572;28;20034;-59
2023/10/03 05:17:32;;;;;;;13.93;9.02;;;333.50;2329.60;;;;;;5090592;28;20020;-60
2023/10/03 05:19:59;;;;;;;18.10;10.27;;;333.60;2329.60;;;;;;5091417;28;20397;-59
2023/10/03 05:22:25;;;;;;;22.20;13.68;;;333.60;2329.60;;;;;;5091072;28;20474;-60
2023/10/03 05:24:52;;;;;;;15.77;11.80;;;333.70;2329.60;;;;;;5089799;28;20107;-59
2023/10/03 05:27:18;;;;;;;14.05;10.63;;;333.70;2329.60;;;;;;5080501;28;20508;-58
2023/10/03 05:29:44;;;;;;;14.18;10.55;;;358.40;2329.60;;;;;;5078626;28;20024;-58
2023/10/03 05:32:10;;;;;;;16.83;10.85;;;358.50;2329.60;;;;;;5082816;28;20046;-58
2023/10/03 05:34:35;;;;;;;18.77;11.35;;;358.50;2329.60;;;;;;5090597;28;20024;-60
2023/10/03 05:37:02;;;;;;;16.38;11.77;;;358.60;2329.60;;;;;;5088719;28;20074;-61
2023/10/03 05:39:30;;;;;;;17.10;11.52;;;358.70;2329.60;;;;;;5079518;28;20025;-60
2023/10/03 05:42:00;;;;;;;15.82;10.93;;;358.80;2329.60;;;;;;5071591;28;20021;-60
2023/10/03 05:44:26;;;;;;;15.32;10.90;;;358.70;2329.60;;;;;;5064401;28;20040;-61
2023/10/03 05:46:57;;;;;;;21.92;11.57;;;358.80;2329.60;;;;;;5072427;28;20033;-61
2023/10/03 05:49:26;;;;;;;14.05;9.65;;;358.90;2329.60;;;;;;5077230;28;20024;-60
2023/10/03 05:51:58;;;;;;;15.95;10.77;;;358.90;2329.60;;;;;;5088587;28;20024;-61
2023/10/03 05:54:26;;;;;;;15.85;10.50;;;359.00;2329.60;;;;;;5078757;28;20074;-61
2023/10/03 05:56:52;;;;;;;14.02;10.02;;;359.10;2329.60;;;;;;5082613;28;20056;-61
2023/10/03 05:59:20;;;;;;;14.85;10.30;;;359.20;2329.60;;;;;;5082424;28;20052;-60
2023/10/03 06:01:47;;;;;;;15.82;10.45;;;384.00;2329.60;;;;;;5081663;28;20410;-61
2023/10/03 06:04:13;;;;;;;17.02;10.45;;;384.80;2329.60;;;;;;5085827;28;20101;-62
2023/10/03 06:06:38;;;;;;;14.10;9.57;;;461.60;2380.80;;;;;;5086783;28;20474;-62
2023/10/03 06:09:04;;;;;;;15.88;11.32;;;512.20;2380.80;;;;;;5088727;28;20032;-62
2023/10/03 06:11:30;;;;;;;22.77;14.45;;;512.90;2380.80;;;;;;5089022;28;20535;-61
2023/10/03 06:13:59;;;;;;;18.75;14.52;;;563.60;2432.00;;;;;;5089103;28;20024;-62
2023/10/03 06:16:28;;;;;;;61.67;54.95;;;614.50;2252.80;;;;;;5089110;28;20056;-62
2023/10/03 06:18:54;;;;;;;17.30;12.98;;;614.90;2176.00;;;;;;5088732;28;20040;-63
2023/10/03 06:21:20;;;;;;;14.80;12.85;;;640.60;2073.60;;;;;;5082617;28;20033;-63
2023/10/03 06:23:46;;;;;;;17.85;12.43;;;691.70;1920.00;;;;;;5075316;28;20024;-62
2023/10/03 06:26:17;;;;;;;13.73;12.20;;;691.20;1894.40;;;;;;5087906;28;20696;-63
2023/10/03 06:28:44;;;;;;;16.60;12.90;;;691.40;1894.40;;;;;;5062580;28;20024;-61
2023/10/03 06:31:11;;;;;;;19.08;13.88;;;717.20;1843.20;;;;;;5084189;28;20028;-64
2023/10/03 06:33:37;;;;;;;14.60;13.15;;;717.10;1817.60;;;;;;5084340;28;20024;-64
2023/10/03 06:36:06;;;;;;;18.23;16.17;;;717.30;1766.40;;;;;;5085144;28;20107;-62
2023/10/03 06:38:32;;;;;;;15.07;13.50;;;742.90;1766.40;;;;;;5088093;28;20489;-62
2023/10/03 06:40:59;;;;;;;18.25;14.80;;;743.20;1715.20;;;;;;5088400;28;20027;-63
2023/10/03 06:43:25;;;;;;;16.42;14.82;;;742.80;1740.80;;;;;;5087466;28;20564;-61
2023/10/03 06:45:50;;;;;;;15.77;14.05;;;743.30;1689.60;;;;;;5081739;28;20131;-63
2023/10/03 06:48:16;;;;;;;15.60;13.98;;;742.80;1740.80;;;;;;5073824;28;20482;-61
2023/10/03 06:50:42;;;;;;;16.70;14.95;;;768.30;1664.00;;;;;;5081694;28;20027;-62
2023/10/03 06:53:13;;;;;;;17.50;15.70;;;743.20;1689.60;;;;;;5075258;28;20389;-63
2023/10/03 06:55:39;;;;;;;17.58;15.30;;;768.90;1612.80;;;;;;5080165;28;20486;-63
2023/10/03 06:58:05;;;;;;;17.58;14.45;;;793.70;1638.40;;;;;;5071272;28;20063;-63
2023/10/03 07:00:32;;;;;;;20.70;14.63;;;743.00;1689.60;;;;;;5069176;28;20671;-64
2023/10/03 07:02:58;;;;;;;29.17;20.33;;;743.00;1689.60;;;;;;5083756;28;20032;-64
2023/10/03 07:05:25;;;;;;;21.80;18.88;;;768.00;1664.00;;;;;;5080086;28;20036;-65
2023/10/03 07:07:51;;;;;;;19.55;16.23;;;743.30;1664.00;;;;;;5080862;28;20074;-64
2023/10/03 07:10:17;;;;;;;17.63;14.85;;;794.10;1612.80;;;;;;5083572;28;20046;-64
2023/10/03 07:12:43;;;;;;;18.95;15.18;;;793.60;1638.40;;;;;;5071784;28;20028;-64
2023/10/03 07:15:11;;;;;;;22.83;20.52;;;768.70;1612.80;;;;;;5087623;28;20112;-62
2023/10/03 07:17:37;;;;;;;23.88;18.13;;;819.20;1587.20;;;;;;5087432;28;20035;-63
2023/10/03 07:20:04;;;;;;;29.30;25.35;;;844.80;1561.60;;;;;;5087840;28;20048;-63
2023/10/03 07:22:30;;;;;;;24.85;22.08;;;845.20;1510.40;;;;;;5088205;28;20055;-62
2023/10/03 07:24:57;;;;;;;19.90;17.40;;;845.50;1484.80;;;;;;5087715;28;20031;-62
2023/10/03 07:27:23;;;;;;;16.58;14.18;;;844.90;1510.40;;;;;;5088772;28;20089;-64
2023/10/03 07:29:49;;;;;;;18.15;15.73;;;845.40;1484.80;;;;;;5088587;28;20031;-62
2023/10/03 07:32:15;;;;;;;17.83;15.27;;;871.00;1433.60;;;;;;5059935;28;20033;-61
2023/10/03 07:34:43;;;;;;;18.70;16.40;;;870.50;1484.80;;;;;;5062612;28;20386;-64
2023/10/03 07:37:10;;;;;;;17.50;14.80;;;819.40;1561.60;;;;;;5069450;28;20107;-63
2023/10/03 07:39:37;;;;;;;17.65;15.43;;;845.20;1510.40;;;;;;5068057;28;20037;-64
2023/10/03 07:42:04;;;;;;;19.17;15.90;;;870.90;1459.20;;;;;;5086225;28;20032;-63
2023/10/03 07:44:30;;;;;;;22.33;15.85;;;870.80;1433.60;;;;;;5086042;28;20982;-64
2023/10/03 07:46:56;;;;;;;24.33;21.15;;;896.10;1408.00;;;;;;5084533;28;20040;-63
2023/10/03 07:49:22;;;;;;;23.05;16.67;;;845.70;1484.80;;;;;;5088451;28;20028;-64
2023/10/03 07:51:54;;;;;;;17.88;15.43;;;896.50;1408.00;;;;;;5076342;28;20058;-63
2023/10/03 07:54:20;;;;;;;19.95;14.80;;;896.70;1356.80;;;;;;5085465;28;20033;-65
2023/10/03 07:56:48;;;;;;;21.55;15.63;;;896.40;1408.00;;;;;;5073151;28;20024;-63
2023/10/03 07:59:14;;;;;;;22.27;17.38;;;922.50;1331.20;;;;;;5075035;28;20051;-65
2023/10/03 08:01:40;;;;;;;22.05;16.20;;;896.10;1408.00;;;;;;5077054;28;20028;-65
2023/10/03 08:04:12;;;;;;;24.00;17.67;;;896.50;1408.00;;;;;;5070457;28;20043;-64
2023/10/03 08:06:39;;;;;;;22.83;14.95;;;845.20;1510.40;;;;;;5066739;28;20048;-64
2023/10/03 08:09:06;;;;;;;24.33;15.60;;;845.20;1536.00;;;;;;5068244;28;20064;-63
2023/10/03 08:11:32;;;;;;;18.52;14.93;;;870.70;1459.20;;;;;;5070258;28;20020;-62
2023/10/03 08:13:59;;;;;;;19.52;17.25;;;921.60;1408.00;;;;;;5068987;28;20478;-65
2023/10/03 08:16:29;;;;;;;20.70;14.93;;;947.40;1356.80;;;;;;5070959;28;20024;-64
2023/10/03 08:18:58;;;;;;;19.88;15.27;;;922.00;1382.40;;;;;;5078083;28;20044;-64
2023/10/03 08:21:30;;;;;;;17.35;14.93;;;845.60;1510.40;;;;;;5071823;28;20028;-63
2023/10/03 08:23:57;;;;;;;25.73;16.45;;;871.30;1459.20;;;;;;5061240;28;20240;-65
2023/10/03 08:26:25;;;;;;;16.27;14.50;;;845.70;1510.40;;;;;;5087066;28;20516;-63
2023/10/03 08:29:04;;;;;;;18.85;15.40;;;922.00;1433.60;;;;;;5085281;28;20490;-61
2023/10/03 08:31:32;;;;;;;21.13;13.80;;;922.30;1382.40;;;;;;5084770;28;20780;-63
2023/10/03 08:33:58;;;;;;;19.73;14.93;;;947.40;1356.80;;;;;;5085630;28;20028;-63
2023/10/03 08:36:29;;;;;;;17.02;13.50;;;948.10;1331.20;;;;;;5063960;28;20028;-63
2023/10/03 08:39:04;;;;;;;17.10;14.07;;;921.90;1408.00;;;;;;5076820;28;20109;-64
2023/10/03 08:41:49;;;;;;;17.45;13.35;;;896.90;1408.00;;;;;;5085899;28;20024;-63
2023/10/03 08:44:15;;;;;;;16.65;13.73;;;870.80;1484.80;;;;;;5085926;28;20566;-63
2023/10/03 08:46:47;;;;;;;15.07;13.48;;;871.30;1459.20;;;;;;5085945;28;20115;-62
2023/10/03 08:49:17;;;;;;;18.13;14.63;;;896.40;1433.60;;;;;;5081149;28;20037;-64
2023/10/03 08:51:47;;;;;;;19.95;18.02;;;845.00;1536.00;;;;;;5065127;28;20037;-63
2023/10/03 08:54:13;;;;;;;18.33;14.98;;;870.40;1510.40;;;;;;5077501;28;20020;-62
2023/10/03 08:56:41;;;;;;;24.10;21.30;;;845.20;1510.40;;;;;;5086079;28;20694;-63
2023/10/03 08:59:10;;;;;;;20.90;14.63;;;820.00;1536.00;;;;;;5079087;28;20046;-62
2023/10/03 09:01:43;;;;;;;17.60;12.45;;;794.50;1612.80;;;;;;5085688;28;20080;-62
2023/10/03 09:04:16;;;;;;;21.55;12.13;;;768.80;1664.00;;;;;;5083713;28;20081;-61
2023/10/03 09:06:46;;;;;;;18.48;11.05;;;717.70;1740.80;;;;;;5078733;28;20047;-61
2023/10/03 09:09:13;;;;;;;17.52;11.13;;;717.10;1766.40;;;;;;5065693;28;20023;-60
2023/10/03 09:11:42;;;;;;;17.60;12.15;;;691.70;1792.00;;;;;;5084686;28;20493;-61
2023/10/03 09:14:09;;;;;;;15.35;9.93;;;691.70;1817.60;;;;;;5087002;28;20073;-63
2023/10/03 09:16:40;;;;;;;14.30;10.35;;;691.90;1792.00;;;;;;5090414;28;20070;-62
2023/10/03 09:19:09;;;;;;;13.38;10.20;;;691.80;1817.60;;;;;;5090249;28;20040;-63
2023/10/03 09:21:35;;;;;;;16.70;10.23;;;691.20;1868.80;;;;;;5089241;28;20024;-63
2023/10/03 09:24:16;;;;;;;16.95;10.93;;;691.30;1868.80;;;;;;5092081;28;20371;-63
2023/10/03 09:26:51;;;;;;;21.95;10.50;;;691.20;1894.40;;;;;;5091224;28;20035;-62
2023/10/03 09:29:29;;;;;;;18.65;11.75;;;666.40;1920.00;;;;;;5091087;28;20066;-62
2023/10/03 09:32:12;;;;;;;18.08;11.48;;;691.30;1894.40;;;;;;5091369;28;20032;-61
2023/10/03 09:34:40;;;;;;;19.90;12.40;;;666.30;1920.00;;;;;;5091030;28;20501;-62
2023/10/03 09:37:06;;;;;;;18.02;13.70;;;666.40;1920.00;;;;;;5091744;28;20032;-62
2023/10/03 09:39:57;;;;;;;20.80;12.82;;;666.20;1971.20;;;;;;5068367;28;20023;-62
2023/10/03 09:42:24;;;;;;;20.02;12.77;;;666.30;1945.60;;;;;;5090513;28;20441;-62
2023/10/03 09:44:51;;;;;;;19.52;13.30;;;666.00;1971.20;;;;;;5074604;28;20044;-62
2023/10/03 09:47:27;;;;;;;12.85;10.68;;;666.20;1971.20;;;;;;5085827;28;20047;-62
2023/10/03 09:50:03;;;;;;;14.98;9.43;;;666.20;1945.60;;;;;;5091483;28;20028;-62
2023/10/03 09:52:30;;;;;;;15.52;10.40;;;666.10;1945.60;;;;;;5091107;28;20056;-62
2023/10/03 09:55:17;;;;;;;15.10;9.30;;;666.00;1945.60;;;;;;5090866;28;20013;-62
2023/10/03 09:57:46;;;;;;;16.30;9.57;;;666.30;1945.60;;;;;;5068722;28;20020;-63
2023/10/03 10:00:25;;;;;;;14.20;9.73;;;666.40;1945.60;;;;;;5090335;28;20036;-61
2023/10/03 10:02:55;;;;;;;13.43;9.32;;;666.40;1894.40;;;;;;5090935;28;20103;-63
2023/10/03 10:05:25;;;;;;;13.60;8.75;;;666.30;1894.40;;;;;;5090126;28;20481;-62
2023/10/03 10:07:50;;;;;;;17.00;9.25;;;666.10;1920.00;;;;;;5090831;28;20028;-62
2023/10/03 10:10:19;;;;;;;14.65;8.85;;;666.20;1920.00;;;;;;5076472;28;20092;-62
2023/10/03 10:13:20;;;;;;;12.20;8.55;;;666.30;1920.00;;;;;;5091105;28;20130;-62
2023/10/03 10:16:03;;;;;;;10.82;8.00;;;666.00;1945.60;;;;;;5090789;28;20031;-62
2023/10/03 10:18:43;;;;;;;14.32;9.93;;;666.30;1920.00;;;;;;5090304;28;20027;-62
2023/10/03 10:21:31;;;;;;;14.05;9.10;;;666.20;1920.00;;;;;;5086862;28;20501;-62
2023/10/03 10:24:25;;;;;;;13.32;8.75;;;666.30;1945.60;;;;;;5056474;28;20470;-62
2023/10/03 10:26:52;;;;;;;9.98;7.88;;;666.00;1920.00;;;;;;5085103;28;20418;-62
2023/10/03 10:29:19;;;;;;;16.20;7.97;;;666.20;1894.40;;;;;;5088961;28;20028;-61
2023/10/03 10:31:57;;;;;;;10.32;6.55;;;666.20;1894.40;;;;;;5089391;28;20020;-61
2023/10/03 10:34:40;;;;;;;11.57;7.18;;;666.30;1894.40;;;;;;5089375;28;20115;-61
2023/10/03 10:37:09;;;;;;;11.50;6.82;;;666.20;1868.80;;;;;;5064802;28;20020;-62
2023/10/03 10:39:54;;;;;;;12.05;7.78;;;666.30;1868.80;;;;;;5089016;28;20032;-61
2023/10/03 10:42:29;;;;;;;11.77;6.95;;;666.30;1894.40;;;;;;5089444;28;20081;-60
2023/10/03 10:45:04;;;;;;;11.52;7.47;;;666.20;1868.80;;;;;;5075604;28;20351;-62
2023/10/03 10:47:35;;;;;;;13.68;7.60;;;666.10;1894.40;;;;;;5088867;28;20067;-61
2023/10/03 10:50:01;;;;;;;10.38;7.28;;;666.20;1894.40;;;;;;5088751;28;20032;-62
2023/10/03 10:52:30;;;;;;;14.77;7.28;;;666.30;1868.80;;;;;;5075733;28;20106;-61
2023/10/03 10:54:56;;;;;;;10.57;6.38;;;666.30;1817.60;;;;;;5089347;28;20030;-61
2023/10/03 10:57:26;;;;;;;8.63;6.00;;;666.40;1792.00;;;;;;5088976;28;20421;-61
2023/10/03 10:59:53;;;;;;;12.43;7.07;;;666.40;1766.40;;;;;;5075235;28;20023;-61
2023/10/03 11:02:20;;;;;;;8.55;5.00;;;666.40;1766.40;;;;;;5069355;28;20032;-61
2023/10/03 11:04:56;;;;;;;8.88;4.90;;;666.50;1689.60;;;;;;5088928;28;20027;-62
2023/10/03 11:07:23;;;;;;;7.93;5.00;;;666.50;1689.60;;;;;;5088864;28;20028;-61
2023/10/03 11:09:50;;;;;;;6.38;4.07;;;666.40;1689.60;;;;;;5088829;28;20031;-61
2023/10/03 11:12:26;;;;;;;8.05;4.38;;;691.20;1612.80;;;;;;5087950;28;20484;-62
2023/10/03 11:14:55;;;;;;;7.50;4.88;;;691.20;1587.20;;;;;;5088255;28;20028;-61
2023/10/03 11:17:21;;;;;;;6.85;4.40;;;691.30;1587.20;;;;;;5088133;28;20097;-61
2023/10/03 11:19:49;;;;;;;6.60;3.85;;;691.20;1561.60;;;;;;5047171;28;1198391;-62
2023/10/03 11:22:17;;;;;;;5.63;3.63;;;691.20;1561.60;;;;;;5089713;28;20070;-61
2023/10/03 11:24:44;;;;;;;6.63;4.22;;;691.30;1561.60;;;;;;5089041;28;20529;-61
2023/10/03 11:27:23;;;;;;;7.30;4.32;;;691.30;1587.20;;;;;;5089396;28;20089;-63
2023/10/03 11:29:49;;;;;;;5.35;3.70;;;691.40;1561.60;;;;;;5072448;28;20017;-61
2023/10/03 11:32:30;;;;;;;6.28;3.97;;;691.30;1536.00;;;;;;5073733;28;20043;-62
2023/10/03 11:34:57;;;;;;;8.65;4.60;;;691.20;1536.00;;;;;;5087108;28;20054;-62
2023/10/03 11:37:39;;;;;;;7.25;4.22;;;666.50;1561.60;;;;;;5089343;28;20028;-62
2023/10/03 11:40:17;;;;;;;6.43;3.70;;;666.50;1536.00;;;;;;5089418;28;20060;-63
2023/10/03 11:43:08;;;;;;;5.38;3.63;;;691.20;1536.00;;;;;;5088608;28;20062;-62
2023/10/03 11:45:34;;;;;;;8.18;4.18;;;691.20;1561.60;;;;;;5088914;28;20035;-61
2023/10/03 11:48:06;;;;;;;5.18;3.70;;;691.30;1561.60;;;;;;5089011;28;20036;-61
2023/10/03 11:50:34;;;;;;;5.68;3.80;;;691.30;1561.60;;;;;;5089033;28;20016;-62
2023/10/03 11:53:00;;;;;;;6.82;3.55;;;691.30;1561.60;;;;;;5089269;28;20020;-62
2023/10/03 11:55:27;;;;;;;5.60;3.38;;;691.30;1561.60;;;;;;5089437;28;20111;-61
2023/10/03 11:57:53;;;;;;;4.90;3.13;;;691.30;1561.60;;;;;;5088868;28;20081;-63
2023/10/03 12:00:24;;;;;;;6.68;3.33;;;691.30;1561.60;;;;;;5088199;28;20028;-60
2023/10/03 12:02:52;;;;;;;5.72;3.42;;;691.40;1536.00;;;;;;5072858;28;20016;-62
2023/10/03 12:05:19;;;;;;;7.07;3.60;;;691.40;1536.00;;;;;;5064858;28;20068;-63
2023/10/03 12:07:49;;;;;;;6.68;3.35;;;691.30;1561.60;;;;;;5088552;28;20028;-62
2023/10/03 12:10:16;;;;;;;7.68;4.03;;;691.40;1561.60;;;;;;5089243;28;20024;-63
2023/10/03 12:12:41;;;;;;;4.80;3.47;;;691.60;1561.60;;;;;;5088992;28;20039;-63
2023/10/03 12:15:12;;;;;;;6.70;4.07;;;691.60;1561.60;;;;;;5088262;28;20482;-62
2023/10/03 12:17:48;;;;;;;6.15;4.25;;;691.60;1587.20;;;;;;5088643;28;20012;-62